createdAt,value
2017-04-27T00:01:39.292Z,39.70
2017-04-27T00:04:06.808Z,39.40
2017-04-27T00:06:34.230Z,39.70
2017-04-27T00:09:01.664Z,39.70
2017-04-27T00:11:29.099Z,39.80
2017-04-27T00:13:56.491Z,39.50
2017-04-27T00:16:23.943Z,40.10
2017-04-27T00:18:51.398Z,39.50
2017-04-27T00:21:18.839Z,40.10
2017-04-27T00:23:46.276Z,40.10
2017-04-27T00:26:13.738Z,41.00
2017-04-27T00:28:41.799Z,40.70
2017-04-27T00:31:09.195Z,41.20
2017-04-27T00:33:36.639Z,40.50
2017-04-27T00:36:04.112Z,40.80
2017-04-27T00:38:31.534Z,40.70
2017-04-27T00:40:58.999Z,41.80
2017-04-27T00:43:26.422Z,41.60
2017-04-27T00:45:53.851Z,41.80
2017-04-27T00:48:21.311Z,41.60
2017-04-27T00:50:48.719Z,42.00
2017-04-27T00:53:16.136Z,42.00
2017-04-27T00:55:44.323Z,42.50
2017-04-27T00:58:12.426Z,42.60
2017-04-27T01:00:39.855Z,42.60
2017-04-27T01:03:07.303Z,43.50
2017-04-27T01:05:34.738Z,43.10
2017-04-27T01:08:02.173Z,43.60
2017-04-27T01:10:29.681Z,43.40
2017-04-27T01:12:57.844Z,43.70
2017-04-27T01:15:25.275Z,43.70
2017-04-27T01:17:52.751Z,44.00
2017-04-27T01:20:20.203Z,44.30
2017-04-27T01:22:47.627Z,44.20
2017-04-27T01:25:15.115Z,44.00
2017-04-27T01:27:42.952Z,44.10
2017-04-27T01:30:10.375Z,44.10
2017-04-27T01:32:37.807Z,44.50
2017-04-27T01:35:05.219Z,44.60
2017-04-27T01:37:32.683Z,44.40
2017-04-27T01:40:00.135Z,45.00
2017-04-27T01:42:27.551Z,43.80
2017-04-27T01:44:54.968Z,44.00
2017-04-27T01:47:23.174Z,44.70
2017-04-27T01:49:50.596Z,45.00
2017-04-27T01:52:18.011Z,45.00
2017-04-27T01:54:45.471Z,44.90
2017-04-27T01:57:12.899Z,45.90
2017-04-27T01:59:40.331Z,45.20
2017-04-27T02:02:08.546Z,45.30
2017-04-27T02:04:35.979Z,45.80
2017-04-27T02:07:03.434Z,45.60
2017-04-27T02:09:31.171Z,45.70
2017-04-27T02:11:58.578Z,45.90
2017-04-27T02:14:26.003Z,46.10
2017-04-27T02:16:54.175Z,46.00
2017-04-27T02:19:21.607Z,46.10
2017-04-27T02:21:49.051Z,46.30
2017-04-27T02:24:16.491Z,46.10
2017-04-27T02:26:43.922Z,46.40
2017-04-27T02:29:11.804Z,46.70
2017-04-27T02:31:39.243Z,46.50
2017-04-27T02:34:06.667Z,46.80
2017-04-27T02:36:34.083Z,46.90
2017-04-27T02:39:02.317Z,46.60
2017-04-27T02:41:29.771Z,46.60
2017-04-27T02:43:57.184Z,46.60
2017-04-27T02:46:24.639Z,46.80
2017-04-27T02:48:52.077Z,47.40
2017-04-27T02:51:19.519Z,46.80
2017-04-27T02:53:46.984Z,46.80
2017-04-27T02:56:15.163Z,46.90
2017-04-27T02:58:43.407Z,46.90
2017-04-27T03:01:12.561Z,47.30
2017-04-27T03:03:39.966Z,47.40
2017-04-27T03:06:07.408Z,47.50
2017-04-27T03:08:34.867Z,47.60
2017-04-27T03:11:02.303Z,47.60
2017-04-27T03:13:29.747Z,47.20
2017-04-27T03:15:57.204Z,47.30
2017-04-27T03:18:24.618Z,47.60
2017-04-27T03:20:52.048Z,47.90
2017-04-27T03:23:19.483Z,47.80
2017-04-27T03:25:46.899Z,47.80
2017-04-27T03:28:15.067Z,48.10
2017-04-27T03:30:43.439Z,47.90
2017-04-27T03:33:10.872Z,48.10
2017-04-27T03:35:38.303Z,48.30
2017-04-27T03:38:05.755Z,48.20
2017-04-27T03:40:33.215Z,48.60
2017-04-27T03:43:00.651Z,48.50
2017-04-27T03:45:28.114Z,48.50
2017-04-27T03:47:55.535Z,48.30
2017-04-27T03:50:22.970Z,48.40
2017-04-27T03:52:50.410Z,48.40
2017-04-27T03:55:17.835Z,48.60
2017-04-27T03:57:45.266Z,48.80
2017-04-27T04:00:13.351Z,49.10
2017-04-27T04:02:40.772Z,49.50
2017-04-27T04:05:08.194Z,49.40
2017-04-27T04:07:36.364Z,49.10
2017-04-27T04:10:03.803Z,49.10
2017-04-27T04:12:31.216Z,49.00
2017-04-27T04:14:58.699Z,49.20
2017-04-27T04:17:26.131Z,49.40
2017-04-27T04:19:53.540Z,49.40
2017-04-27T04:22:20.991Z,50.00
2017-04-27T04:24:49.147Z,50.80
2017-04-27T04:27:17.357Z,50.50
2017-04-27T04:29:44.809Z,50.00
2017-04-27T04:32:12.975Z,50.20
2017-04-27T04:34:40.411Z,50.30
2017-04-27T04:37:07.871Z,50.90
2017-04-27T04:39:35.291Z,50.80
2017-04-27T04:42:02.734Z,51.10
2017-04-27T04:44:30.174Z,51.40
2017-04-27T04:46:57.615Z,51.00
2017-04-27T04:49:25.027Z,51.10
2017-04-27T04:51:52.479Z,51.30
2017-04-27T04:54:19.906Z,51.20
2017-04-27T04:56:47.328Z,50.90
2017-04-27T04:59:14.783Z,50.70
2017-04-27T05:01:43.235Z,51.00
2017-04-27T05:04:10.663Z,51.30
2017-04-27T05:06:38.140Z,51.30
2017-04-27T05:09:05.596Z,52.00
2017-04-27T05:11:33.026Z,52.10
2017-04-27T05:14:00.502Z,52.40
2017-04-27T05:16:27.910Z,52.40
2017-04-27T05:18:55.355Z,52.50
2017-04-27T05:21:22.795Z,52.40
2017-04-27T05:23:50.211Z,52.30
2017-04-27T05:26:17.611Z,52.00
2017-04-27T05:28:45.084Z,52.10
2017-04-27T05:31:13.424Z,52.00
2017-04-27T05:33:41.578Z,52.30
2017-04-27T05:36:09.095Z,52.40
2017-04-27T05:38:36.555Z,51.90
2017-04-27T05:41:04.039Z,51.30
2017-04-27T05:43:31.562Z,50.90
2017-04-27T05:45:59.044Z,51.00
2017-04-27T05:48:26.463Z,49.60
2017-04-27T05:50:53.903Z,49.80
2017-04-27T05:53:21.344Z,48.90
2017-04-27T05:55:48.751Z,48.50
2017-04-27T05:58:16.220Z,47.90
2017-04-27T06:00:43.668Z,46.90
2017-04-27T06:03:11.111Z,47.10
2017-04-27T06:05:38.628Z,46.10
2017-04-27T06:08:06.167Z,46.00
2017-04-27T06:10:34.487Z,46.30
2017-04-27T06:13:02.023Z,46.20
2017-04-27T06:15:29.595Z,45.30
2017-04-27T06:17:57.104Z,44.60
2017-04-27T06:20:24.676Z,44.90
2017-04-27T06:22:52.196Z,44.90
2017-04-27T06:25:19.731Z,44.40
2017-04-27T06:27:47.290Z,43.70
2017-04-27T06:30:14.833Z,44.10
2017-04-27T06:32:42.658Z,43.40
2017-04-27T06:35:10.247Z,45.70
2017-04-27T06:37:37.792Z,46.30
2017-04-27T06:40:05.339Z,44.90
2017-04-27T06:42:32.875Z,46.00
2017-04-27T06:45:00.419Z,45.60
2017-04-27T06:47:28.665Z,45.30
2017-04-27T06:49:56.225Z,44.80
2017-04-27T06:52:24.513Z,43.30
2017-04-27T06:54:52.041Z,43.50
2017-04-27T06:57:20.364Z,43.70
2017-04-27T06:59:47.864Z,41.70
2017-04-27T07:02:15.356Z,42.80
2017-04-27T07:04:42.832Z,42.00
2017-04-27T07:07:11.016Z,42.70
2017-04-27T07:09:38.479Z,40.00
2017-04-27T07:12:05.951Z,40.80
2017-04-27T07:14:33.379Z,41.50
2017-04-27T07:17:00.912Z,41.50
2017-04-27T07:19:28.384Z,42.40
2017-04-27T07:21:55.807Z,41.10
2017-04-27T07:24:23.218Z,40.40
2017-04-27T07:28:10.372Z,44.50
2017-04-27T07:30:38.555Z,51.20
2017-04-27T07:33:05.983Z,51.00
2017-04-27T07:35:34.201Z,51.50
2017-04-27T07:38:01.635Z,49.70
2017-04-27T07:40:29.071Z,49.50
2017-04-27T07:42:56.541Z,49.30
2017-04-27T07:45:23.987Z,48.50
2017-04-27T07:47:51.414Z,47.10
2017-04-27T07:50:18.859Z,41.90
2017-04-27T07:52:46.302Z,38.70
2017-04-27T07:55:13.859Z,37.30
2017-04-27T07:57:42.480Z,35.80
2017-04-27T08:00:10.016Z,34.50
2017-04-27T08:02:37.637Z,33.60
2017-04-27T08:05:05.237Z,33.00
2017-04-27T08:07:32.856Z,33.40
2017-04-27T08:10:00.503Z,31.50
2017-04-27T08:12:28.024Z,31.70
2017-04-27T08:14:55.548Z,33.10
2017-04-27T08:17:23.071Z,34.30
2017-04-27T08:19:51.372Z,33.20
2017-04-27T08:22:18.935Z,33.40
2017-04-27T08:24:46.533Z,36.90
2017-04-27T08:27:14.184Z,37.00
2017-04-27T08:29:42.758Z,38.00
2017-04-27T08:32:10.276Z,38.80
2017-04-27T08:34:38.596Z,37.90
2017-04-27T08:37:06.157Z,39.60
2017-04-27T08:39:33.701Z,38.50
2017-04-27T08:42:01.280Z,39.60
2017-04-27T08:44:28.860Z,38.30
2017-04-27T08:46:56.419Z,39.40
2017-04-27T08:49:23.994Z,37.60
2017-04-27T08:51:51.592Z,39.20
2017-04-27T08:54:19.157Z,40.30
2017-04-27T08:56:47.068Z,38.30
2017-04-27T08:59:14.704Z,39.80
2017-04-27T09:01:42.612Z,37.80
2017-04-27T09:04:10.246Z,38.00
2017-04-27T09:06:37.856Z,41.30
2017-04-27T09:09:05.487Z,39.40
2017-04-27T09:11:33.084Z,38.80
2017-04-27T09:14:00.753Z,40.40
2017-04-27T09:16:29.043Z,40.60
2017-04-27T09:18:56.558Z,40.80
2017-04-27T09:21:24.878Z,39.00
2017-04-27T09:23:52.504Z,38.80
2017-04-27T09:26:20.176Z,40.80
2017-04-27T09:28:47.778Z,40.40
2017-04-27T09:31:15.397Z,39.20
2017-04-27T09:33:42.999Z,40.00
2017-04-27T09:36:10.623Z,39.30
2017-04-27T09:38:38.257Z,40.90
2017-04-27T09:41:05.824Z,42.70
2017-04-27T09:43:33.488Z,41.30
2017-04-27T09:46:01.144Z,41.70
2017-04-27T09:48:28.755Z,43.30
2017-04-27T09:50:56.364Z,42.20
2017-04-27T09:53:24.678Z,41.50
2017-04-27T09:55:52.264Z,42.30
2017-04-27T09:58:20.684Z,42.30
2017-04-27T10:00:48.273Z,42.30
2017-04-27T10:03:16.636Z,44.50
2017-04-27T10:05:45.028Z,42.50
2017-04-27T10:08:12.883Z,40.30
2017-04-27T10:10:40.490Z,41.30
2017-04-27T10:13:08.097Z,41.50
2017-04-27T10:15:35.724Z,38.50
2017-04-27T10:18:03.309Z,39.10
2017-04-27T10:20:30.980Z,39.60
2017-04-27T10:22:59.243Z,40.60
2017-04-27T10:25:27.519Z,42.80
2017-04-27T10:27:55.104Z,41.20
2017-04-27T10:30:22.663Z,38.10
2017-04-27T10:32:50.196Z,38.60
2017-04-27T10:35:17.788Z,40.30
2017-04-27T10:37:45.376Z,40.90
2017-04-27T10:40:12.996Z,42.00
2017-04-27T10:42:40.808Z,42.00
2017-04-27T10:45:09.276Z,41.60
2017-04-27T10:47:37.696Z,40.30
2017-04-27T10:50:05.344Z,39.20
2017-04-27T10:52:33.161Z,37.00
2017-04-27T10:55:00.752Z,37.30
2017-04-27T10:57:28.324Z,36.70
2017-04-27T10:59:55.912Z,33.50
2017-04-27T11:02:23.528Z,32.10
2017-04-27T11:04:51.428Z,33.50
2017-04-27T11:07:19.160Z,32.70
2017-04-27T11:09:47.139Z,30.50
2017-04-27T11:12:15.554Z,29.20
2017-04-27T11:14:43.092Z,28.70
2017-04-27T11:17:10.635Z,28.20
2017-04-27T11:19:38.220Z,28.20
2017-04-27T11:22:05.933Z,32.40
2017-04-27T11:24:33.564Z,34.20
2017-04-27T11:27:01.212Z,33.20
2017-04-27T11:29:29.020Z,34.00
2017-04-27T11:31:56.561Z,33.60
2017-04-27T11:34:24.145Z,34.60
2017-04-27T11:36:52.449Z,31.70
2017-04-27T11:39:20.101Z,33.20
2017-04-27T11:41:47.675Z,35.80
2017-04-27T11:44:16.061Z,33.10
2017-04-27T11:46:43.685Z,35.30
2017-04-27T11:49:13.072Z,34.80
2017-04-27T11:51:42.112Z,33.90
2017-04-27T11:54:09.696Z,33.60
2017-04-27T11:56:37.293Z,33.20
2017-04-27T11:59:04.928Z,34.10
2017-04-27T12:01:33.196Z,32.80
2017-04-27T12:04:00.803Z,32.10
2017-04-27T12:06:28.429Z,33.90
2017-04-27T12:08:55.997Z,31.70
2017-04-27T12:11:23.580Z,30.70
2017-04-27T12:13:51.127Z,30.00
2017-04-27T12:16:18.716Z,30.10
2017-04-27T12:18:46.320Z,30.40
2017-04-27T12:21:13.924Z,32.80
2017-04-27T12:23:42.080Z,32.60
2017-04-27T12:26:09.706Z,33.60
2017-04-27T12:28:38.061Z,34.30
2017-04-27T12:31:06.417Z,35.30
2017-04-27T12:33:34.804Z,35.90
2017-04-27T12:36:03.167Z,35.10
2017-04-27T12:38:30.804Z,35.20
2017-04-27T12:40:59.147Z,36.70
2017-04-27T12:43:26.718Z,36.20
2017-04-27T12:45:54.289Z,35.60
2017-04-27T12:48:21.944Z,37.00
2017-04-27T12:50:49.567Z,35.80
2017-04-27T12:53:17.103Z,35.30
2017-04-27T12:55:44.764Z,33.90
2017-04-27T12:58:12.731Z,34.10
2017-04-27T13:00:40.327Z,40.70
2017-04-27T13:03:07.896Z,32.60
2017-04-27T13:05:35.480Z,32.20
2017-04-27T13:08:03.088Z,35.90
2017-04-27T13:10:30.724Z,33.60
2017-04-27T13:12:58.314Z,33.60
2017-04-27T13:15:25.932Z,30.90
2017-04-27T13:17:53.488Z,36.00
2017-04-27T13:20:21.152Z,35.40
2017-04-27T13:22:48.735Z,35.20
2017-04-27T13:25:17.156Z,34.30
2017-04-27T13:27:44.752Z,35.30
2017-04-27T13:30:12.715Z,34.90
2017-04-27T13:32:40.288Z,35.10
2017-04-27T13:35:07.888Z,35.50
2017-04-27T13:37:35.521Z,35.50
2017-04-27T13:40:03.895Z,35.90
2017-04-27T13:42:31.560Z,37.50
2017-04-27T13:44:59.171Z,37.00
2017-04-27T13:47:27.498Z,38.30
2017-04-27T13:49:55.749Z,38.20
2017-04-27T13:52:23.368Z,37.50
2017-04-27T13:54:51.056Z,37.60
2017-04-27T13:57:18.651Z,38.80
2017-04-27T13:59:46.284Z,38.40
2017-04-27T14:02:13.852Z,37.60
2017-04-27T14:04:41.732Z,36.50
2017-04-27T14:07:09.340Z,35.30
2017-04-27T14:09:36.968Z,34.20
2017-04-27T14:12:04.607Z,31.90
2017-04-27T14:14:32.992Z,30.30
2017-04-27T14:17:00.623Z,31.60
2017-04-27T14:19:28.209Z,31.80
2017-04-27T14:21:55.800Z,29.50
2017-04-27T14:24:23.451Z,29.70
2017-04-27T14:26:51.067Z,28.60
2017-04-27T14:29:18.681Z,31.10
2017-04-27T14:31:46.288Z,30.20
2017-04-27T14:34:14.575Z,32.50
2017-04-27T14:36:42.214Z,31.60
2017-04-27T14:39:09.827Z,31.90
2017-04-27T14:41:38.136Z,34.00
2017-04-27T14:44:05.733Z,33.60
2017-04-27T14:46:33.335Z,34.80
2017-04-27T14:49:00.931Z,35.20
2017-04-27T14:51:29.228Z,33.10
2017-04-27T14:53:57.252Z,32.10
2017-04-27T14:56:24.839Z,34.40
2017-04-27T14:58:52.671Z,37.30
2017-04-27T15:01:20.256Z,33.20
2017-04-27T15:03:47.825Z,36.60
2017-04-27T15:06:16.208Z,34.40
2017-04-27T15:08:43.868Z,34.70
2017-04-27T15:11:12.081Z,34.60
2017-04-27T15:13:40.384Z,33.40
2017-04-27T15:16:08.005Z,34.60
2017-04-27T15:18:36.291Z,31.70
2017-04-27T15:21:03.829Z,34.60
2017-04-27T15:23:31.461Z,32.30
2017-04-27T15:25:59.088Z,33.70
2017-04-27T15:28:26.689Z,34.10
2017-04-27T15:30:54.312Z,35.40
2017-04-27T15:33:21.900Z,37.50
2017-04-27T15:35:49.480Z,36.70
2017-04-27T15:38:17.079Z,36.80
2017-04-27T15:40:44.681Z,37.40
2017-04-27T15:43:12.708Z,37.00
2017-04-27T15:45:40.376Z,38.70
2017-04-27T15:48:08.024Z,39.40
2017-04-27T15:50:35.670Z,40.20
2017-04-27T15:53:03.334Z,39.20
2017-04-27T15:55:30.935Z,39.00
2017-04-27T15:57:59.296Z,39.50
2017-04-27T16:00:26.911Z,41.30
2017-04-27T16:02:54.460Z,40.40
2017-04-27T16:05:22.044Z,43.10
2017-04-27T16:07:49.690Z,41.00
2017-04-27T16:10:17.369Z,43.10
2017-04-27T16:12:44.984Z,43.70
2017-04-27T16:15:13.525Z,44.80
2017-04-27T16:17:42.624Z,41.90
2017-04-27T16:20:10.221Z,37.60
2017-04-27T16:22:37.872Z,37.20
2017-04-27T16:25:05.560Z,37.10
2017-04-27T16:27:33.144Z,37.30
2017-04-27T16:30:00.812Z,37.60
2017-04-27T16:32:28.436Z,37.30
2017-04-27T16:34:56.088Z,38.80
2017-04-27T16:37:30.363Z,38.20
2017-04-27T16:39:58.001Z,39.00
2017-04-27T16:42:25.718Z,38.90
2017-04-27T16:44:54.036Z,39.10
2017-04-27T16:47:21.663Z,38.90
2017-04-27T16:49:49.277Z,39.40
2017-04-27T16:52:16.832Z,39.80
2017-04-27T16:54:44.431Z,42.00
2017-04-27T16:57:12.692Z,42.40
2017-04-27T16:59:40.325Z,40.90
2017-04-27T17:02:08.024Z,38.40
2017-04-27T17:04:36.340Z,39.80
2017-04-27T17:07:03.956Z,43.50
2017-04-27T17:09:31.715Z,42.00
2017-04-27T17:11:59.372Z,42.00
2017-04-27T17:14:26.961Z,42.60
2017-04-27T17:16:55.316Z,41.90
2017-04-27T17:19:23.681Z,41.20
2017-04-27T17:21:51.248Z,39.10
2017-04-27T17:24:18.842Z,37.50
2017-04-27T17:26:46.441Z,40.40
2017-04-27T17:29:14.060Z,41.90
2017-04-27T17:31:41.710Z,40.60
2017-04-27T17:34:10.085Z,40.80
2017-04-27T17:36:37.692Z,43.30
2017-04-27T17:39:06.065Z,41.80
2017-04-27T17:41:33.698Z,38.60
2017-04-27T17:44:01.188Z,39.30
2017-04-27T17:46:28.769Z,41.80
2017-04-27T17:48:56.364Z,40.90
2017-04-27T17:51:25.873Z,39.00
2017-04-27T17:53:53.492Z,42.80
2017-04-27T17:56:21.056Z,40.30
2017-04-27T17:58:48.616Z,44.00
2017-04-27T18:01:16.244Z,41.90
2017-04-27T18:03:43.896Z,43.60
2017-04-27T18:06:12.240Z,44.30
2017-04-27T18:08:39.869Z,45.10
2017-04-27T18:11:08.475Z,46.20
2017-04-27T18:13:36.146Z,45.60
2017-04-27T18:16:03.731Z,47.60
2017-04-27T18:18:32.100Z,48.40
2017-04-27T18:21:00.399Z,47.20
2017-04-27T18:23:27.992Z,47.60
2017-04-27T18:25:56.480Z,47.90
2017-04-27T18:28:24.168Z,48.10
2017-04-27T18:30:52.695Z,49.10
2017-04-27T18:33:20.425Z,51.90
2017-04-27T18:35:47.857Z,51.90
2017-04-27T18:38:15.744Z,50.50
2017-04-27T18:40:43.588Z,49.80
2017-04-27T18:43:12.332Z,51.30
2017-04-27T18:45:42.279Z,52.70
2017-04-27T18:48:12.526Z,53.00
2017-04-27T18:50:41.032Z,53.50
2017-04-27T18:53:09.959Z,54.30
2017-04-27T18:55:38.625Z,55.70
2017-04-27T18:58:07.629Z,54.70
2017-04-27T19:00:36.638Z,55.20
2017-04-27T19:03:05.317Z,56.00
2017-04-27T19:05:34.311Z,56.40
2017-04-27T19:08:03.303Z,56.30
2017-04-27T19:10:32.688Z,57.10
2017-04-27T19:13:01.568Z,56.80
2017-04-27T19:15:30.307Z,57.00
2017-04-27T19:18:00.364Z,56.50
2017-04-27T19:20:29.849Z,58.20
2017-04-27T19:22:59.512Z,58.20
2017-04-27T19:25:29.063Z,59.60
2017-04-27T19:27:58.470Z,59.00
2017-04-27T19:30:29.169Z,58.80
2017-04-27T19:32:59.419Z,58.60
2017-04-27T19:35:29.888Z,59.20
2017-04-27T19:37:59.318Z,59.80
2017-04-27T19:40:28.888Z,60.30
2017-04-27T19:42:58.865Z,60.40
2017-04-27T19:45:29.336Z,60.40
2017-04-27T19:47:58.838Z,59.60
2017-04-27T19:50:29.425Z,60.20
2017-04-27T19:52:59.646Z,62.00
2017-04-27T19:55:29.494Z,61.40
2017-04-27T19:58:00.178Z,60.50
2017-04-27T20:00:30.952Z,62.70
2017-04-27T20:03:01.432Z,62.20
2017-04-27T20:05:31.912Z,61.90
2017-04-27T20:08:01.424Z,61.70
2017-04-27T20:10:32.104Z,61.20
2017-04-27T20:13:02.267Z,62.10
2017-04-27T20:15:33.314Z,61.70
2017-04-27T20:18:02.720Z,61.20
2017-04-27T20:20:33.000Z,60.40
2017-04-27T20:23:03.513Z,61.30
2017-04-27T20:25:33.836Z,61.80
2017-04-27T20:28:03.033Z,62.10
2017-04-27T20:30:31.799Z,61.30
2017-04-27T20:33:00.161Z,61.50
2017-04-27T20:35:28.503Z,61.70
2017-04-27T20:37:57.335Z,62.50
2017-04-27T20:40:25.094Z,62.20
2017-04-27T20:42:52.831Z,60.50
2017-04-27T20:45:20.616Z,61.40
2017-04-27T20:47:48.271Z,60.90
2017-04-27T20:50:15.911Z,62.60
2017-04-27T20:52:43.576Z,60.60
2017-04-27T20:55:11.208Z,60.30
2017-04-27T20:57:38.841Z,61.70
2017-04-27T21:00:06.445Z,60.90
2017-04-27T21:02:34.078Z,59.80
2017-04-27T21:05:01.697Z,61.30
2017-04-27T21:07:30.105Z,61.30
2017-04-27T21:09:57.680Z,59.80
2017-04-27T21:12:25.355Z,59.80
2017-04-27T21:14:53.076Z,60.40
2017-04-27T21:17:20.723Z,61.00
2017-04-27T21:19:48.316Z,62.50
2017-04-27T21:22:15.936Z,63.70
2017-04-27T21:24:44.298Z,61.90
2017-04-27T21:27:13.444Z,61.40
2017-04-27T21:29:41.092Z,61.30
2017-04-27T21:32:08.776Z,61.80
2017-04-27T21:34:37.104Z,60.70
2017-04-27T21:37:04.744Z,59.00
2017-04-27T21:39:32.423Z,59.30
2017-04-27T21:42:00.130Z,58.00
2017-04-27T21:44:27.771Z,57.60
2017-04-27T21:46:55.364Z,58.50
2017-04-27T21:49:23.692Z,57.40
2017-04-27T21:51:51.313Z,58.50
2017-04-27T21:54:18.876Z,58.00
2017-04-27T21:56:46.569Z,57.80
2017-04-27T21:59:14.199Z,58.20
2017-04-27T22:01:42.816Z,57.30
2017-04-27T22:04:10.493Z,57.70
2017-04-27T22:06:38.120Z,56.20
2017-04-27T22:09:05.716Z,57.60
2017-04-27T22:11:34.132Z,57.30
2017-04-27T22:14:01.773Z,56.80
2017-04-27T22:16:30.001Z,55.60
2017-04-27T22:18:57.625Z,57.30
2017-04-27T22:21:26.004Z,57.10
2017-04-27T22:23:54.376Z,56.40
2017-04-27T22:26:22.003Z,54.80
2017-04-27T22:28:49.603Z,53.30
2017-04-27T22:31:17.224Z,51.90
2017-04-27T22:33:44.841Z,50.60
2017-04-27T22:36:13.576Z,50.10
2017-04-27T22:38:41.181Z,50.70
2017-04-27T22:41:08.781Z,51.50
2017-04-27T22:43:36.329Z,53.20
2017-04-27T22:46:03.876Z,53.50
2017-04-27T22:48:32.199Z,54.00
2017-04-27T22:50:59.861Z,54.30
2017-04-27T22:53:27.488Z,54.60
2017-04-27T22:55:55.095Z,54.70
2017-04-27T22:58:22.748Z,56.60
2017-04-27T23:00:50.364Z,56.50
2017-04-27T23:03:17.949Z,56.50
2017-04-27T23:05:45.564Z,55.60
2017-04-27T23:08:13.188Z,55.60
2017-04-27T23:10:40.798Z,55.90
2017-04-27T23:13:08.456Z,55.40
2017-04-27T23:15:36.096Z,54.40
2017-04-27T23:18:03.764Z,55.40
2017-04-27T23:20:31.382Z,56.00
2017-04-27T23:22:58.965Z,57.70
2017-04-27T23:25:27.368Z,57.90
2017-04-27T23:27:54.977Z,57.00
2017-04-27T23:30:23.335Z,57.40
2017-04-27T23:32:51.713Z,58.80
2017-04-27T23:35:19.379Z,58.60
2017-04-27T23:37:46.985Z,58.80
2017-04-27T23:40:14.587Z,59.30
2017-04-27T23:42:42.928Z,59.60
2017-04-27T23:45:10.528Z,59.60
2017-04-27T23:47:38.124Z,59.70
2017-04-27T23:50:05.748Z,59.60
2017-04-27T23:52:33.396Z,59.10
2017-04-27T23:55:00.996Z,59.00
2017-04-27T23:57:28.603Z,58.20
2017-04-27T23:59:56.179Z,57.90
